createdAt,value
2017-03-29T00:00:34.432Z,72.60
2017-03-29T00:01:33.796Z,72.80
2017-03-29T00:02:33.083Z,73.10
2017-03-29T00:03:39.321Z,73.10
2017-03-29T00:04:39.502Z,73.10
2017-03-29T00:05:39.135Z,73.20
2017-03-29T00:06:38.514Z,73.50
2017-03-29T00:07:37.803Z,73.80
2017-03-29T00:08:37.173Z,74.10
2017-03-29T00:09:36.514Z,74.30
2017-03-29T00:10:35.799Z,74.70
2017-03-29T00:11:35.130Z,75.90
2017-03-29T00:12:34.442Z,75.30
2017-03-29T00:13:33.702Z,75.50
2017-03-29T00:14:32.971Z,75.60
2017-03-29T00:15:32.280Z,75.60
2017-03-29T00:16:31.556Z,75.70
2017-03-29T00:17:30.849Z,75.30
2017-03-29T00:18:30.662Z,75.20
2017-03-29T00:19:29.910Z,75.30
2017-03-29T00:20:29.310Z,75.30
2017-03-29T00:21:28.685Z,75.40
2017-03-29T00:22:27.966Z,75.20
2017-03-29T00:23:27.788Z,75.00
2017-03-29T00:24:27.096Z,74.90
2017-03-29T00:25:26.445Z,75.10
2017-03-29T00:26:25.703Z,75.20
2017-03-29T00:27:25.697Z,74.90
2017-03-29T00:28:24.960Z,74.90
2017-03-29T00:29:24.232Z,74.90
2017-03-29T00:30:23.490Z,74.80
2017-03-29T00:31:23.530Z,74.80
2017-03-29T00:32:22.865Z,74.70
2017-03-29T00:33:22.172Z,73.40
2017-03-29T00:34:22.219Z,74.50
2017-03-29T00:35:21.514Z,74.50
2017-03-29T00:36:20.792Z,73.50
2017-03-29T00:37:20.114Z,73.40
2017-03-29T00:38:19.404Z,73.50
2017-03-29T00:39:18.687Z,73.30
2017-03-29T00:40:18.010Z,73.20
2017-03-29T00:41:17.689Z,73.20
2017-03-29T00:42:17.062Z,72.90
2017-03-29T00:43:16.300Z,73.30
2017-03-29T00:44:15.624Z,72.50
2017-03-29T00:45:14.950Z,72.30
2017-03-29T00:46:14.228Z,72.20
2017-03-29T00:47:13.569Z,72.30
2017-03-29T00:48:12.836Z,72.40
2017-03-29T00:49:12.883Z,72.40
2017-03-29T00:50:12.210Z,72.40
2017-03-29T00:51:12.240Z,72.50
2017-03-29T00:52:11.520Z,72.60
2017-03-29T00:53:10.745Z,72.80
2017-03-29T00:54:10.164Z,72.70
2017-03-29T00:55:09.418Z,72.40
2017-03-29T00:56:09.495Z,72.30
2017-03-29T00:57:08.800Z,72.00
2017-03-29T00:58:08.128Z,72.20
2017-03-29T00:59:07.390Z,72.70
2017-03-29T01:00:06.707Z,72.50
2017-03-29T01:01:06.074Z,72.50
2017-03-29T01:02:05.434Z,72.50
2017-03-29T01:03:05.527Z,72.40
2017-03-29T01:04:04.859Z,72.10
2017-03-29T01:05:04.153Z,72.00
2017-03-29T01:06:03.378Z,71.70
2017-03-29T01:07:02.702Z,71.70
2017-03-29T01:08:02.037Z,71.80
2017-03-29T01:09:02.080Z,71.80
2017-03-29T01:10:01.333Z,71.90
2017-03-29T01:11:00.640Z,71.90
2017-03-29T01:12:00.031Z,72.10
2017-03-29T01:12:59.329Z,72.10
2017-03-29T01:13:58.719Z,71.90
2017-03-29T01:14:58.021Z,72.00
2017-03-29T01:15:57.344Z,71.90
2017-03-29T01:16:56.674Z,71.90
2017-03-29T01:17:56.661Z,71.80
2017-03-29T01:18:56.198Z,71.80
2017-03-29T01:19:55.543Z,71.60
2017-03-29T01:20:54.802Z,71.50
2017-03-29T01:21:54.370Z,71.40
2017-03-29T01:22:53.650Z,71.20
2017-03-29T01:23:52.940Z,71.20
2017-03-29T01:24:52.226Z,71.50
2017-03-29T01:25:52.229Z,71.50
2017-03-29T01:26:51.523Z,71.50
2017-03-29T01:27:50.830Z,71.50
2017-03-29T01:28:50.102Z,71.50
2017-03-29T01:29:49.400Z,71.10
2017-03-29T01:30:48.687Z,71.80
2017-03-29T01:31:48.004Z,71.80
2017-03-29T01:32:47.295Z,71.70
2017-03-29T01:33:46.583Z,71.50
2017-03-29T01:34:45.843Z,71.60
2017-03-29T01:35:45.856Z,71.40
2017-03-29T01:36:45.156Z,71.50
2017-03-29T01:37:44.453Z,71.80
2017-03-29T01:38:43.720Z,71.80
2017-03-29T01:39:42.969Z,72.80
2017-03-29T01:40:42.188Z,72.00
2017-03-29T01:41:41.472Z,71.90
2017-03-29T01:42:41.486Z,71.90
2017-03-29T01:43:40.799Z,71.90
2017-03-29T01:44:40.071Z,72.10
2017-03-29T01:45:39.349Z,72.30
2017-03-29T01:46:39.353Z,72.40
2017-03-29T01:47:38.748Z,72.50
2017-03-29T01:48:38.808Z,72.50
2017-03-29T01:49:38.089Z,72.40
2017-03-29T01:50:37.408Z,72.50
2017-03-29T01:51:36.708Z,72.50
2017-03-29T01:52:36.031Z,72.70
2017-03-29T01:53:35.282Z,73.00
2017-03-29T01:54:34.570Z,72.90
2017-03-29T01:55:33.968Z,72.80
2017-03-29T01:56:33.271Z,72.70
2017-03-29T01:57:33.358Z,72.60
2017-03-29T01:58:32.596Z,72.50
2017-03-29T01:59:31.971Z,72.60
2017-03-29T02:00:31.310Z,72.40
2017-03-29T02:01:30.637Z,72.40
2017-03-29T02:02:30.771Z,73.20
2017-03-29T02:03:30.150Z,72.60
2017-03-29T02:04:29.422Z,72.60
2017-03-29T02:05:28.723Z,72.60
2017-03-29T02:06:28.030Z,72.60
2017-03-29T02:07:27.740Z,72.80
2017-03-29T02:08:27.091Z,72.50
2017-03-29T02:09:26.364Z,72.70
2017-03-29T02:10:25.691Z,72.50
2017-03-29T02:11:25.096Z,72.30
2017-03-29T02:12:24.365Z,72.30
2017-03-29T02:13:23.698Z,72.50
2017-03-29T02:14:22.966Z,72.70
2017-03-29T02:15:27.936Z,72.80
2017-03-29T02:16:27.386Z,73.30
2017-03-29T02:17:26.674Z,73.90
2017-03-29T02:18:26.008Z,73.70
2017-03-29T02:19:29.422Z,73.70
2017-03-29T02:20:28.673Z,73.50
2017-03-29T02:21:27.927Z,73.60
2017-03-29T02:22:27.172Z,73.70
2017-03-29T02:23:26.511Z,73.70
2017-03-29T02:24:25.782Z,73.70
2017-03-29T02:25:25.091Z,73.70
2017-03-29T02:26:24.376Z,73.60
2017-03-29T02:27:23.700Z,73.90
2017-03-29T02:28:23.043Z,73.80
2017-03-29T02:29:22.294Z,73.90
2017-03-29T02:30:22.368Z,74.40
2017-03-29T02:31:21.679Z,74.60
2017-03-29T02:32:20.955Z,74.70
2017-03-29T02:33:20.240Z,74.80
2017-03-29T02:34:19.514Z,74.80
2017-03-29T02:35:18.839Z,74.60
2017-03-29T02:36:18.144Z,75.10
2017-03-29T02:37:17.434Z,75.30
2017-03-29T02:38:17.087Z,75.30
2017-03-29T02:39:16.399Z,75.30
2017-03-29T02:40:15.689Z,75.20
2017-03-29T02:41:15.048Z,75.10
2017-03-29T02:42:14.369Z,75.20
2017-03-29T02:43:13.898Z,75.20
2017-03-29T02:44:13.198Z,75.40
2017-03-29T02:45:12.527Z,75.40
2017-03-29T02:46:11.837Z,75.70
2017-03-29T02:47:11.148Z,75.60
2017-03-29T02:48:10.495Z,75.50
2017-03-29T02:49:09.935Z,75.50
2017-03-29T02:50:09.206Z,75.50
2017-03-29T02:51:08.508Z,75.80
2017-03-29T02:52:07.838Z,75.60
2017-03-29T02:53:07.113Z,75.30
2017-03-29T02:54:06.399Z,75.40
2017-03-29T02:55:05.697Z,75.70
2017-03-29T02:56:05.027Z,75.80
2017-03-29T02:57:04.280Z,75.90
2017-03-29T02:58:03.663Z,76.00
2017-03-29T02:59:02.956Z,76.10
2017-03-29T03:00:02.265Z,76.30
2017-03-29T03:01:01.594Z,76.70
2017-03-29T03:02:00.892Z,76.50
2017-03-29T03:03:00.159Z,76.60
2017-03-29T03:03:59.719Z,76.60
2017-03-29T03:04:58.976Z,76.60
2017-03-29T03:05:58.286Z,76.70
2017-03-29T03:06:57.583Z,77.10
2017-03-29T03:07:56.833Z,77.30
2017-03-29T03:08:56.113Z,77.10
2017-03-29T03:09:55.453Z,77.20
2017-03-29T03:10:54.738Z,77.50
2017-03-29T03:11:54.021Z,77.60
2017-03-29T03:12:53.347Z,77.50
2017-03-29T03:13:53.175Z,77.70
2017-03-29T03:14:52.481Z,77.80
2017-03-29T03:15:51.765Z,77.90
2017-03-29T03:16:51.024Z,77.80
2017-03-29T03:17:50.259Z,77.70
2017-03-29T03:18:49.568Z,78.00
2017-03-29T03:19:48.885Z,77.90
2017-03-29T03:20:48.884Z,77.80
2017-03-29T03:21:48.190Z,77.80
2017-03-29T03:22:47.490Z,77.90
2017-03-29T03:23:46.735Z,78.00
2017-03-29T03:24:46.049Z,78.30
2017-03-29T03:25:45.383Z,78.70
2017-03-29T03:26:44.639Z,79.30
2017-03-29T03:27:43.884Z,78.30
2017-03-29T03:28:43.381Z,78.60
2017-03-29T03:29:42.996Z,79.00
2017-03-29T03:30:42.309Z,79.30
2017-03-29T03:31:41.626Z,79.60
2017-03-29T03:32:40.961Z,79.90
2017-03-29T03:33:40.221Z,79.80
2017-03-29T03:34:39.489Z,79.90
2017-03-29T03:35:38.976Z,80.00
2017-03-29T03:36:38.252Z,80.20
2017-03-29T03:37:37.542Z,80.20
2017-03-29T03:38:37.585Z,80.30
2017-03-29T03:39:36.820Z,80.60
2017-03-29T03:40:36.158Z,80.40
2017-03-29T03:41:35.453Z,80.30
2017-03-29T03:42:34.722Z,80.20
2017-03-29T03:43:34.020Z,80.60
2017-03-29T03:44:33.284Z,80.50
2017-03-29T03:45:32.626Z,80.60
2017-03-29T03:46:31.894Z,80.60
2017-03-29T03:47:31.190Z,80.70
2017-03-29T03:48:30.495Z,81.00
2017-03-29T03:49:29.767Z,81.10
2017-03-29T03:50:29.764Z,81.50
2017-03-29T03:51:29.358Z,81.60
2017-03-29T03:52:28.635Z,81.90
2017-03-29T03:53:27.915Z,82.00
2017-03-29T03:54:27.894Z,82.10
2017-03-29T03:55:27.274Z,82.10
2017-03-29T03:56:26.634Z,82.20
2017-03-29T03:57:25.920Z,82.40
2017-03-29T03:58:25.187Z,82.50
2017-03-29T03:59:24.762Z,82.70
2017-03-29T04:00:24.434Z,82.60
2017-03-29T04:01:23.766Z,82.80
2017-03-29T04:02:23.771Z,83.00
2017-03-29T04:03:23.810Z,83.10
2017-03-29T04:04:23.101Z,83.30
2017-03-29T04:05:22.425Z,83.20
2017-03-29T04:06:21.713Z,83.10
2017-03-29T04:07:20.999Z,82.90
2017-03-29T04:08:20.231Z,82.90
2017-03-29T04:09:20.275Z,82.90
2017-03-29T04:10:19.521Z,83.00
2017-03-29T04:11:18.830Z,83.00
2017-03-29T04:12:18.092Z,83.50
2017-03-29T04:13:17.394Z,83.10
2017-03-29T04:14:17.405Z,83.00
2017-03-29T04:15:16.690Z,83.10
2017-03-29T04:16:16.033Z,83.30
2017-03-29T04:17:15.331Z,83.50
2017-03-29T04:18:18.794Z,83.70
2017-03-29T04:19:18.313Z,83.90
2017-03-29T04:20:17.671Z,83.90
2017-03-29T04:21:16.972Z,83.80
2017-03-29T04:22:16.252Z,83.70
2017-03-29T04:23:16.784Z,83.80
2017-03-29T04:24:16.079Z,83.60
2017-03-29T04:25:15.412Z,83.50
2017-03-29T04:26:14.755Z,83.30
2017-03-29T04:27:14.073Z,83.40
2017-03-29T04:28:13.394Z,83.60
2017-03-29T04:29:12.767Z,83.90
2017-03-29T04:30:12.078Z,84.10
2017-03-29T04:31:11.401Z,84.10
2017-03-29T04:32:10.689Z,84.10
2017-03-29T04:33:10.972Z,84.10
2017-03-29T04:34:10.997Z,84.10
2017-03-29T04:35:10.341Z,84.10
2017-03-29T04:36:09.921Z,84.20
2017-03-29T04:37:09.224Z,84.30
2017-03-29T04:38:08.503Z,84.60
2017-03-29T04:39:07.869Z,85.00
2017-03-29T04:40:07.158Z,85.10
2017-03-29T04:41:06.425Z,85.40
2017-03-29T04:42:05.732Z,85.20
2017-03-29T04:43:05.131Z,85.20
2017-03-29T04:44:04.420Z,85.30
2017-03-29T04:45:03.738Z,85.50
2017-03-29T04:46:03.021Z,85.50
2017-03-29T04:47:02.372Z,85.20
2017-03-29T04:48:01.678Z,85.10
2017-03-29T04:49:04.289Z,85.10
2017-03-29T04:50:03.637Z,84.90
2017-03-29T04:51:03.164Z,85.10
2017-03-29T04:52:02.483Z,85.10
2017-03-29T04:53:02.094Z,85.10
2017-03-29T04:54:01.405Z,85.40
2017-03-29T04:55:00.749Z,85.80
2017-03-29T04:56:00.038Z,85.50
2017-03-29T04:57:00.099Z,85.40
2017-03-29T04:57:59.386Z,85.30
2017-03-29T04:58:59.025Z,85.50
2017-03-29T04:59:58.306Z,85.10
2017-03-29T05:01:00.598Z,85.10
2017-03-29T05:01:59.921Z,85.10
2017-03-29T05:02:59.162Z,85.10
2017-03-29T05:03:58.472Z,85.20
2017-03-29T05:04:57.750Z,85.30
2017-03-29T05:05:56.987Z,85.70
2017-03-29T05:06:56.274Z,85.70
2017-03-29T05:07:55.527Z,85.50
2017-03-29T05:08:54.784Z,85.70
2017-03-29T05:09:54.089Z,85.60
2017-03-29T05:10:53.371Z,85.70
2017-03-29T05:11:52.709Z,85.50
2017-03-29T05:12:52.021Z,85.90
2017-03-29T05:13:51.319Z,86.00
2017-03-29T05:14:50.593Z,86.10
2017-03-29T05:15:49.871Z,86.10
2017-03-29T05:16:49.245Z,86.90
2017-03-29T05:17:48.597Z,85.90
2017-03-29T05:18:48.032Z,86.10
2017-03-29T05:19:48.056Z,86.30
2017-03-29T05:20:47.381Z,86.80
2017-03-29T05:21:46.670Z,86.20
2017-03-29T05:22:46.079Z,86.00
2017-03-29T05:23:45.408Z,86.10
2017-03-29T05:24:45.392Z,86.20
2017-03-29T05:25:44.671Z,86.10
2017-03-29T05:26:43.975Z,86.20
2017-03-29T05:27:43.303Z,86.10
2017-03-29T05:28:42.656Z,86.10
2017-03-29T05:29:41.924Z,86.20
2017-03-29T05:30:41.943Z,86.70
2017-03-29T05:31:41.252Z,86.80
2017-03-29T05:32:40.545Z,87.00
2017-03-29T05:33:39.847Z,87.30
2017-03-29T05:34:39.118Z,87.50
2017-03-29T05:35:38.423Z,87.90
2017-03-29T05:36:37.754Z,87.20
2017-03-29T05:37:37.048Z,87.20
2017-03-29T05:38:36.294Z,86.90
2017-03-29T05:39:35.570Z,87.10
2017-03-29T05:40:34.881Z,87.10
2017-03-29T05:41:34.187Z,86.70
2017-03-29T05:42:33.805Z,87.10
2017-03-29T05:43:33.108Z,87.00
2017-03-29T05:44:32.421Z,86.70
2017-03-29T05:45:31.751Z,86.60
2017-03-29T05:46:31.030Z,86.80
2017-03-29T05:47:30.327Z,87.00
2017-03-29T05:48:29.594Z,87.80
2017-03-29T05:49:28.902Z,88.10
2017-03-29T05:50:28.203Z,88.40
2017-03-29T05:51:27.492Z,88.40
2017-03-29T05:52:26.788Z,88.70
2017-03-29T05:53:26.109Z,89.40
2017-03-29T05:54:25.361Z,89.60
2017-03-29T05:55:24.613Z,90.00
2017-03-29T05:56:23.885Z,90.00
2017-03-29T05:57:23.187Z,90.20
2017-03-29T05:58:22.471Z,90.20
2017-03-29T05:59:21.742Z,90.30
2017-03-29T06:00:21.021Z,90.60
2017-03-29T06:01:20.278Z,90.70
2017-03-29T06:02:19.614Z,90.40
2017-03-29T06:03:18.981Z,90.80
2017-03-29T06:04:18.200Z,90.80
2017-03-29T06:05:17.484Z,90.90
2017-03-29T06:06:16.799Z,91.10
2017-03-29T06:07:16.100Z,91.10
2017-03-29T06:08:15.396Z,91.30
2017-03-29T06:09:14.720Z,91.60
2017-03-29T06:10:14.015Z,91.80
2017-03-29T06:11:13.273Z,91.90
2017-03-29T06:12:13.335Z,92.00
2017-03-29T06:13:12.681Z,92.20
2017-03-29T06:14:12.684Z,92.30
2017-03-29T06:15:11.958Z,92.80
2017-03-29T06:16:11.204Z,92.50
2017-03-29T06:17:10.483Z,92.40
2017-03-29T06:18:10.076Z,92.40
2017-03-29T06:19:09.377Z,92.50
2017-03-29T06:20:08.647Z,92.50
2017-03-29T06:21:07.982Z,92.60
2017-03-29T06:22:07.255Z,92.60
2017-03-29T06:23:06.515Z,92.50
2017-03-29T06:24:05.872Z,92.50
2017-03-29T06:25:05.134Z,92.40
2017-03-29T06:26:04.401Z,92.40
2017-03-29T06:27:03.695Z,92.40
2017-03-29T06:28:02.990Z,92.40
2017-03-29T06:29:02.314Z,92.50
2017-03-29T06:30:01.620Z,92.50
2017-03-29T06:31:00.936Z,92.60
2017-03-29T06:32:00.204Z,92.60
2017-03-29T06:32:59.519Z,92.50
2017-03-29T06:33:58.781Z,92.50
2017-03-29T06:34:58.078Z,92.70
2017-03-29T06:35:57.357Z,92.50
2017-03-29T06:36:56.734Z,92.30
2017-03-29T06:37:56.738Z,92.20
2017-03-29T06:38:56.178Z,92.20
2017-03-29T06:39:55.428Z,92.30
2017-03-29T06:40:54.754Z,92.40
2017-03-29T06:41:54.159Z,92.50
2017-03-29T06:42:53.375Z,92.60
2017-03-29T06:43:52.673Z,92.70
2017-03-29T06:44:51.932Z,92.70
2017-03-29T06:45:51.188Z,92.70
2017-03-29T06:46:50.474Z,92.70
2017-03-29T06:47:49.741Z,92.70
2017-03-29T06:48:49.092Z,92.60
2017-03-29T06:49:48.361Z,92.60
2017-03-29T06:50:47.646Z,92.70
2017-03-29T06:51:46.934Z,92.70
2017-03-29T06:52:46.222Z,92.60
2017-03-29T06:53:45.837Z,92.70
2017-03-29T06:54:45.109Z,92.70
2017-03-29T06:55:43.599Z,92.70
2017-03-29T06:56:43.066Z,92.80
2017-03-29T06:57:42.341Z,92.50
2017-03-29T06:58:41.563Z,92.60
2017-03-29T06:59:40.828Z,92.60
2017-03-29T07:00:40.222Z,92.60
2017-03-29T07:01:39.468Z,92.60
2017-03-29T07:02:41.940Z,92.30
2017-03-29T07:03:41.230Z,92.30
2017-03-29T07:04:40.623Z,92.40
2017-03-29T07:05:39.928Z,92.40
2017-03-29T07:06:39.236Z,92.30
2017-03-29T07:07:39.250Z,92.40
2017-03-29T07:08:38.507Z,92.30
2017-03-29T07:09:37.764Z,92.30
2017-03-29T07:10:37.011Z,92.30
2017-03-29T07:11:36.309Z,92.20
2017-03-29T07:12:35.565Z,92.10
2017-03-29T07:13:34.810Z,92.00
2017-03-29T07:14:34.107Z,91.90
2017-03-29T07:15:34.118Z,92.10
2017-03-29T07:16:33.402Z,92.10
2017-03-29T07:17:32.730Z,92.10
2017-03-29T07:18:31.937Z,92.00
2017-03-29T07:19:31.229Z,92.00
2017-03-29T07:20:31.227Z,92.00
2017-03-29T07:21:30.527Z,91.90
2017-03-29T07:22:29.804Z,91.90
2017-03-29T07:23:29.840Z,92.00
2017-03-29T07:24:29.180Z,92.20
2017-03-29T07:25:28.443Z,92.00
2017-03-29T07:26:27.724Z,91.80
2017-03-29T07:27:27.012Z,92.10
2017-03-29T07:28:26.297Z,91.90
2017-03-29T07:29:25.899Z,91.90
2017-03-29T07:30:25.157Z,92.00
2017-03-29T07:31:25.210Z,91.90
2017-03-29T07:32:24.470Z,91.90
2017-03-29T07:33:23.732Z,92.30
2017-03-29T07:34:23.041Z,92.00
2017-03-29T07:35:23.056Z,91.90
2017-03-29T07:36:22.292Z,91.70
2017-03-29T07:37:21.597Z,91.70
2017-03-29T07:38:20.864Z,91.70
2017-03-29T07:39:20.101Z,91.50
2017-03-29T07:40:19.444Z,91.40
2017-03-29T07:41:19.455Z,91.40
2017-03-29T07:42:18.782Z,91.30
2017-03-29T07:43:18.022Z,91.20
2017-03-29T07:44:17.266Z,91.30
2017-03-29T07:45:16.611Z,91.40
2017-03-29T07:46:15.883Z,91.50
2017-03-29T07:47:15.164Z,91.50
2017-03-29T07:48:14.467Z,91.30
2017-03-29T07:49:13.806Z,91.10
2017-03-29T07:50:13.153Z,91.20
2017-03-29T07:51:12.501Z,91.20
2017-03-29T07:52:11.830Z,91.30
2017-03-29T07:53:11.115Z,91.30
2017-03-29T07:54:10.425Z,91.20
2017-03-29T07:55:09.764Z,91.20
2017-03-29T07:56:09.872Z,91.40
2017-03-29T07:57:09.957Z,91.00
2017-03-29T07:58:09.269Z,90.60
2017-03-29T07:59:09.316Z,90.80
2017-03-29T08:00:08.668Z,90.90
2017-03-29T08:01:08.042Z,90.90
2017-03-29T08:02:07.357Z,90.80
2017-03-29T08:03:06.674Z,90.80
2017-03-29T08:04:06.004Z,90.90
2017-03-29T08:05:05.604Z,90.90
2017-03-29T08:06:04.964Z,90.90
2017-03-29T08:07:04.717Z,90.80
2017-03-29T08:08:04.739Z,90.80
2017-03-29T08:09:04.471Z,90.70
2017-03-29T08:10:03.740Z,90.60
2017-03-29T08:11:03.073Z,90.50
2017-03-29T08:12:02.376Z,90.20
2017-03-29T08:13:01.629Z,90.30
2017-03-29T08:14:00.891Z,90.50
2017-03-29T08:15:00.186Z,90.40
2017-03-29T08:15:59.493Z,90.20
2017-03-29T08:16:58.799Z,90.30
2017-03-29T08:17:58.118Z,90.10
2017-03-29T08:18:57.456Z,90.10
2017-03-29T08:19:56.734Z,90.20
2017-03-29T08:20:56.066Z,90.40
2017-03-29T08:21:55.531Z,90.30
2017-03-29T08:22:54.893Z,90.20
2017-03-29T08:23:54.263Z,90.10
2017-03-29T08:24:53.658Z,90.30
2017-03-29T08:25:53.120Z,90.30
2017-03-29T08:26:52.625Z,90.30
2017-03-29T08:27:52.014Z,90.30
2017-03-29T08:28:51.416Z,90.30
2017-03-29T08:29:50.826Z,90.10
2017-03-29T08:30:50.244Z,90.20
2017-03-29T08:31:49.581Z,90.10
2017-03-29T08:32:48.952Z,90.00
2017-03-29T08:33:48.219Z,90.00
2017-03-29T08:34:48.267Z,90.10
2017-03-29T08:35:47.986Z,90.20
2017-03-29T08:36:47.245Z,90.30
2017-03-29T08:37:46.548Z,90.40
2017-03-29T08:38:45.830Z,90.30
2017-03-29T08:39:45.167Z,90.30
2017-03-29T08:40:44.472Z,90.10
2017-03-29T08:41:43.756Z,90.00
2017-03-29T08:42:43.093Z,89.90
2017-03-29T08:43:45.368Z,89.60
2017-03-29T08:44:44.792Z,89.80
2017-03-29T08:45:44.120Z,89.90
2017-03-29T08:46:43.453Z,90.10
2017-03-29T08:47:42.770Z,90.00
2017-03-29T08:48:42.629Z,90.10
2017-03-29T08:49:42.602Z,90.00
2017-03-29T08:50:41.890Z,90.10
2017-03-29T08:51:41.227Z,90.10
2017-03-29T08:52:40.580Z,90.10
2017-03-29T08:53:39.893Z,89.80
2017-03-29T08:54:39.200Z,89.90
2017-03-29T08:55:38.522Z,89.70
2017-03-29T08:56:37.819Z,89.90
2017-03-29T08:57:37.163Z,89.70
2017-03-29T08:58:36.636Z,89.40
2017-03-29T08:59:35.985Z,89.50
2017-03-29T09:00:36.052Z,89.80
2017-03-29T09:01:35.417Z,90.00
2017-03-29T09:02:35.213Z,90.00
2017-03-29T09:03:34.487Z,90.00
2017-03-29T09:04:33.801Z,90.00
2017-03-29T09:05:33.069Z,89.90
2017-03-29T09:06:32.370Z,89.80
2017-03-29T09:07:31.698Z,89.90
2017-03-29T09:08:30.987Z,89.60
2017-03-29T09:09:30.300Z,89.50
2017-03-29T09:10:29.648Z,89.30
2017-03-29T09:11:28.966Z,89.20
2017-03-29T09:12:28.292Z,89.40
2017-03-29T09:13:27.622Z,89.30
2017-03-29T09:14:26.899Z,89.00
2017-03-29T09:15:28.098Z,89.00
2017-03-29T09:16:27.765Z,89.40
2017-03-29T09:17:27.126Z,89.80
2017-03-29T09:18:26.486Z,89.50
2017-03-29T09:19:26.589Z,89.20
2017-03-29T09:20:25.946Z,89.70
2017-03-29T09:21:25.244Z,89.80
2017-03-29T09:22:24.583Z,89.70
2017-03-29T09:23:23.966Z,89.50
2017-03-29T09:24:23.348Z,89.70
2017-03-29T09:25:24.540Z,89.60
2017-03-29T09:26:23.881Z,89.70
2017-03-29T09:27:23.253Z,89.50
2017-03-29T09:28:23.475Z,89.50
2017-03-29T09:29:22.776Z,89.30
2017-03-29T09:30:22.500Z,89.10
2017-03-29T09:31:21.828Z,89.10
2017-03-29T09:32:21.755Z,89.10
2017-03-29T09:33:21.087Z,88.90
2017-03-29T09:34:20.395Z,88.80
2017-03-29T09:35:19.665Z,88.90
2017-03-29T09:36:18.934Z,89.40
2017-03-29T09:37:18.462Z,89.50
2017-03-29T09:38:17.858Z,89.40
2017-03-29T09:39:17.107Z,89.20
2017-03-29T09:40:17.692Z,89.30
2017-03-29T09:41:17.053Z,89.60
2017-03-29T09:42:16.338Z,89.10
2017-03-29T09:43:15.604Z,88.90
2017-03-29T09:44:14.928Z,88.70
2017-03-29T09:45:14.232Z,88.50
2017-03-29T09:46:14.661Z,88.70
2017-03-29T09:47:13.964Z,88.30
2017-03-29T09:48:13.226Z,88.50
2017-03-29T09:49:12.469Z,88.50
2017-03-29T09:50:11.743Z,88.50
2017-03-29T09:51:11.020Z,88.30
2017-03-29T09:52:10.613Z,88.20
2017-03-29T09:53:09.863Z,88.60
2017-03-29T09:54:09.147Z,88.60
2017-03-29T09:55:08.420Z,88.40
2017-03-29T09:56:07.720Z,87.90
2017-03-29T09:57:07.032Z,87.60
2017-03-29T09:58:06.295Z,87.90
2017-03-29T09:59:05.549Z,87.00
2017-03-29T10:00:04.864Z,87.60
2017-03-29T10:01:04.176Z,87.70
2017-03-29T10:02:03.419Z,87.70
2017-03-29T10:03:02.702Z,86.80
2017-03-29T10:04:01.981Z,86.40
2017-03-29T10:05:01.289Z,86.30
2017-03-29T10:06:00.598Z,86.50
2017-03-29T10:07:00.646Z,86.30
2017-03-29T10:08:00.014Z,86.40
2017-03-29T10:08:59.273Z,86.00
2017-03-29T10:09:58.566Z,85.50
2017-03-29T10:10:58.560Z,85.70
2017-03-29T10:11:57.832Z,85.90
2017-03-29T10:12:57.130Z,85.50
2017-03-29T10:13:56.401Z,84.90
2017-03-29T10:14:55.702Z,84.80
2017-03-29T10:15:55.016Z,84.60
2017-03-29T10:16:54.268Z,84.40
2017-03-29T10:17:53.606Z,84.50
2017-03-29T10:18:52.855Z,84.80
2017-03-29T10:19:52.134Z,84.80
2017-03-29T10:20:51.426Z,84.40
2017-03-29T10:21:50.692Z,84.00
2017-03-29T10:22:49.987Z,83.70
2017-03-29T10:23:49.322Z,83.00
2017-03-29T10:24:48.623Z,82.90
2017-03-29T10:25:47.904Z,82.60
2017-03-29T10:26:47.164Z,83.00
2017-03-29T10:27:46.435Z,83.00
2017-03-29T10:28:46.729Z,82.70
2017-03-29T10:29:46.099Z,82.60
2017-03-29T10:30:45.446Z,82.90
2017-03-29T10:31:44.717Z,82.70
2017-03-29T10:32:44.015Z,83.20
2017-03-29T10:33:43.357Z,82.80
2017-03-29T10:34:42.679Z,83.30
2017-03-29T10:35:41.948Z,83.50
2017-03-29T10:36:42.228Z,82.90
2017-03-29T10:37:41.505Z,82.50
2017-03-29T10:38:40.874Z,82.40
2017-03-29T10:39:40.136Z,82.00
2017-03-29T10:40:40.171Z,82.20
2017-03-29T10:41:39.440Z,82.00
2017-03-29T10:42:38.691Z,82.50
2017-03-29T10:43:37.998Z,82.60
2017-03-29T10:44:37.258Z,82.70
2017-03-29T10:45:36.563Z,83.20
2017-03-29T10:46:35.823Z,83.00
2017-03-29T10:47:35.105Z,82.00
2017-03-29T10:48:34.419Z,81.80
2017-03-29T10:49:33.664Z,81.90
2017-03-29T10:50:35.135Z,81.80
2017-03-29T10:51:34.431Z,82.00
2017-03-29T10:52:33.734Z,82.30
2017-03-29T10:53:36.050Z,82.00
2017-03-29T10:54:35.351Z,82.10
2017-03-29T10:55:34.595Z,82.30
2017-03-29T10:56:33.833Z,81.70
2017-03-29T10:57:33.145Z,82.10
2017-03-29T10:58:32.439Z,82.20
2017-03-29T10:59:31.735Z,82.50
2017-03-29T11:00:31.425Z,82.40
2017-03-29T11:01:30.716Z,83.10
2017-03-29T11:02:30.037Z,83.30
2017-03-29T11:03:29.348Z,83.20
2017-03-29T11:04:28.661Z,83.40
2017-03-29T11:05:27.930Z,83.20
2017-03-29T11:06:27.247Z,82.70
2017-03-29T11:07:30.995Z,82.60
2017-03-29T11:08:30.304Z,82.10
2017-03-29T11:09:30.360Z,82.30
2017-03-29T11:10:29.640Z,82.50
2017-03-29T11:11:28.956Z,82.40
2017-03-29T11:12:28.245Z,82.50
2017-03-29T11:13:27.634Z,81.90
2017-03-29T11:14:26.935Z,82.00
2017-03-29T11:15:26.201Z,82.60
2017-03-29T11:16:25.478Z,81.80
2017-03-29T11:17:29.497Z,81.90
2017-03-29T11:18:28.818Z,81.40
2017-03-29T11:19:28.110Z,81.30
2017-03-29T11:20:27.362Z,81.00
2017-03-29T11:21:26.635Z,80.70
2017-03-29T11:22:25.952Z,80.80
2017-03-29T11:23:25.244Z,81.00
2017-03-29T11:24:24.564Z,81.40
2017-03-29T11:25:23.838Z,81.00
2017-03-29T11:26:23.062Z,80.80
2017-03-29T11:27:22.402Z,80.60
2017-03-29T11:28:21.679Z,80.30
2017-03-29T11:29:24.077Z,79.90
2017-03-29T11:30:25.025Z,79.50
2017-03-29T11:31:24.436Z,79.60
2017-03-29T11:32:23.722Z,79.60
2017-03-29T11:34:33.519Z,80.30
2017-03-29T11:35:51.076Z,79.50
2017-03-29T11:38:08.537Z,79.50
2017-03-29T11:39:25.699Z,79.50
2017-03-29T11:41:31.565Z,79.50
2017-03-29T11:42:31.124Z,79.70
2017-03-29T11:43:31.109Z,80.10
2017-03-29T11:44:30.413Z,80.30
2017-03-29T11:45:31.449Z,80.90
2017-03-29T11:46:37.605Z,81.00
2017-03-29T11:47:51.655Z,82.80
2017-03-29T11:48:55.856Z,81.80
2017-03-29T11:50:06.249Z,81.70
2017-03-29T11:51:16.846Z,81.60
2017-03-29T11:52:16.153Z,81.00
2017-03-29T11:53:16.145Z,81.50
2017-03-29T11:54:15.438Z,81.60
2017-03-29T11:55:14.772Z,81.50
2017-03-29T11:56:14.092Z,81.20
2017-03-29T11:57:13.379Z,80.60
2017-03-29T11:58:12.757Z,80.40
2017-03-29T11:59:12.142Z,80.40
2017-03-29T12:00:11.503Z,80.40
2017-03-29T12:01:10.879Z,80.80
2017-03-29T12:02:10.186Z,80.50
2017-03-29T12:03:19.767Z,80.40
2017-03-29T12:04:19.558Z,80.80
2017-03-29T12:05:19.045Z,81.80
2017-03-29T12:06:18.631Z,80.90
2017-03-29T12:07:18.077Z,81.20
2017-03-29T12:08:17.501Z,81.50
2017-03-29T12:09:16.906Z,81.40
2017-03-29T12:10:16.413Z,81.80
2017-03-29T12:11:16.013Z,82.00
2017-03-29T12:12:15.317Z,82.20
2017-03-29T12:13:14.574Z,82.30
2017-03-29T12:14:13.904Z,83.30
2017-03-29T12:15:13.229Z,82.90
2017-03-29T12:16:13.233Z,83.00
2017-03-29T12:17:12.500Z,82.90
2017-03-29T12:18:11.806Z,83.40
2017-03-29T12:19:11.067Z,83.10
2017-03-29T12:20:10.943Z,83.40
2017-03-29T12:21:10.235Z,83.20
2017-03-29T12:22:09.462Z,83.60
2017-03-29T12:23:08.836Z,83.90
2017-03-29T12:24:08.065Z,83.40
2017-03-29T12:25:07.367Z,83.50
2017-03-29T12:26:06.684Z,83.20
2017-03-29T12:27:06.010Z,83.60
2017-03-29T12:28:05.402Z,83.50
2017-03-29T12:29:05.736Z,83.30
2017-03-29T12:30:05.316Z,83.20
2017-03-29T12:31:04.557Z,83.10
2017-03-29T12:32:03.857Z,83.20
2017-03-29T12:33:04.052Z,83.20
2017-03-29T12:34:03.328Z,82.80
2017-03-29T12:35:02.616Z,83.10
2017-03-29T12:36:02.984Z,82.70
2017-03-29T12:37:02.270Z,82.70
2017-03-29T12:38:01.575Z,82.80
2017-03-29T12:39:02.701Z,82.90
2017-03-29T12:40:02.016Z,82.70
2017-03-29T12:41:01.305Z,82.60
2017-03-29T12:42:00.546Z,82.50
2017-03-29T12:42:59.811Z,82.70
2017-03-29T12:43:59.061Z,82.30
2017-03-29T12:44:58.299Z,82.40
2017-03-29T12:45:57.590Z,82.60
2017-03-29T12:46:56.824Z,82.60
2017-03-29T12:47:56.131Z,82.70
2017-03-29T12:48:55.371Z,82.40
2017-03-29T12:49:54.668Z,82.10
2017-03-29T12:50:53.984Z,82.00